sensor_id;sensor_type;location;lat;lon;timestamp;P1;durP1;ratioP1;P2;durP2;ratioP2
75582;SDS011;64161;46.312;44.310;2022-10-23T00:01:39;12.82;;;6.70;;
75582;SDS011;64161;46.312;44.310;2022-10-23T00:04:11;14.07;;;6.22;;
75582;SDS011;64161;46.312;44.310;2022-10-23T00:06:46;11.57;;;6.70;;
75582;SDS011;64161;46.312;44.310;2022-10-23T00:09:14;13.00;;;6.18;;
75582;SDS011;64161;46.312;44.310;2022-10-23T00:11:42;11.85;;;6.13;;
75582;SDS011;64161;46.312;44.310;2022-10-23T00:14:12;13.98;;;6.68;;
75582;SDS011;64161;46.312;44.310;2022-10-23T00:16:39;11.20;;;5.68;;
75582;SDS011;64161;46.312;44.310;2022-10-23T00:19:06;9.73;;;5.55;;
75582;SDS011;64161;46.312;44.310;2022-10-23T00:21:32;14.82;;;6.03;;
75582;SDS011;64161;46.312;44.310;2022-10-23T00:23:58;11.57;;;5.03;;
75582;SDS011;64161;46.312;44.310;2022-10-23T00:26:25;12.52;;;5.93;;
75582;SDS011;64161;46.312;44.310;2022-10-23T00:28:52;11.55;;;6.22;;
75582;SDS011;64161;46.312;44.310;2022-10-23T00:31:19;12.65;;;5.63;;
75582;SDS011;64161;46.312;44.310;2022-10-23T00:33:47;15.45;;;5.63;;
75582;SDS011;64161;46.312;44.310;2022-10-23T00:36:15;13.38;;;5.50;;
75582;SDS011;64161;46.312;44.310;2022-10-23T00:38:43;15.27;;;6.78;;
75582;SDS011;64161;46.312;44.310;2022-10-23T00:41:21;15.15;;;5.65;;
75582;SDS011;64161;46.312;44.310;2022-10-23T00:44:09;11.70;;;5.82;;
75582;SDS011;64161;46.312;44.310;2022-10-23T00:46:56;13.90;;;6.28;;
75582;SDS011;64161;46.312;44.310;2022-10-23T00:49:24;13.18;;;5.60;;
75582;SDS011;64161;46.312;44.310;2022-10-23T00:52:01;9.90;;;5.47;;
75582;SDS011;64161;46.312;44.310;2022-10-23T00:54:33;12.07;;;5.82;;
75582;SDS011;64161;46.312;44.310;2022-10-23T00:57:03;10.05;;;5.05;;
75582;SDS011;64161;46.312;44.310;2022-10-23T00:59:32;10.55;;;6.10;;
75582;SDS011;64161;46.312;44.310;2022-10-23T01:02:00;10.10;;;5.78;;
75582;SDS011;64161;46.312;44.310;2022-10-23T01:04:26;10.52;;;5.72;;
75582;SDS011;64161;46.312;44.310;2022-10-23T01:09:35;9.95;;;5.38;;
75582;SDS011;64161;46.312;44.310;2022-10-23T01:12:34;10.65;;;6.38;;
75582;SDS011;64161;46.312;44.310;2022-10-23T01:15:22;12.65;;;6.13;;
75582;SDS011;64161;46.312;44.310;2022-10-23T01:20:39;11.32;;;5.22;;
75582;SDS011;64161;46.312;44.310;2022-10-23T01:23:34;11.18;;;5.63;;
75582;SDS011;64161;46.312;44.310;2022-10-23T01:31:29;12.25;;;6.13;;
75582;SDS011;64161;46.312;44.310;2022-10-23T01:33:58;11.23;;;5.50;;
75582;SDS011;64161;46.312;44.310;2022-10-23T01:36:30;12.00;;;6.03;;
75582;SDS011;64161;46.312;44.310;2022-10-23T01:39:03;9.77;;;5.97;;
75582;SDS011;64161;46.312;44.310;2022-10-23T01:41:38;9.95;;;5.47;;
75582;SDS011;64161;46.312;44.310;2022-10-23T01:44:13;10.52;;;5.63;;
75582;SDS011;64161;46.312;44.310;2022-10-23T01:46:58;13.95;;;6.00;;
75582;SDS011;64161;46.312;44.310;2022-10-23T01:49:31;11.45;;;5.80;;
75582;SDS011;64161;46.312;44.310;2022-10-23T01:52:00;12.68;;;5.47;;
75582;SDS011;64161;46.312;44.310;2022-10-23T01:54:31;9.13;;;4.88;;
75582;SDS011;64161;46.312;44.310;2022-10-23T01:57:01;10.20;;;5.47;;
75582;SDS011;64161;46.312;44.310;2022-10-23T01:59:31;12.90;;;6.68;;
75582;SDS011;64161;46.312;44.310;2022-10-23T02:02:03;13.68;;;6.15;;
75582;SDS011;64161;46.312;44.310;2022-10-23T02:04:41;18.55;;;6.00;;
75582;SDS011;64161;46.312;44.310;2022-10-23T02:07:30;15.43;;;6.35;;
75582;SDS011;64161;46.312;44.310;2022-10-23T02:09:57;11.15;;;5.60;;
75582;SDS011;64161;46.312;44.310;2022-10-23T02:15:08;11.40;;;5.95;;
75582;SDS011;64161;46.312;44.310;2022-10-23T02:18:02;14.23;;;6.38;;
75582;SDS011;64161;46.312;44.310;2022-10-23T02:20:54;10.25;;;5.90;;
75582;SDS011;64161;46.312;44.310;2022-10-23T02:23:44;12.55;;;6.10;;
75582;SDS011;64161;46.312;44.310;2022-10-23T02:26:18;12.02;;;5.38;;
75582;SDS011;64161;46.312;44.310;2022-10-23T02:29:27;13.50;;;6.75;;
75582;SDS011;64161;46.312;44.310;2022-10-23T02:31:55;10.65;;;5.53;;
75582;SDS011;64161;46.312;44.310;2022-10-23T02:34:21;11.32;;;5.72;;
75582;SDS011;64161;46.312;44.310;2022-10-23T02:36:48;12.13;;;5.13;;
75582;SDS011;64161;46.312;44.310;2022-10-23T02:39:16;12.00;;;5.93;;
75582;SDS011;64161;46.312;44.310;2022-10-23T02:41:45;19.05;;;6.97;;
75582;SDS011;64161;46.312;44.310;2022-10-23T02:44:34;12.73;;;6.05;;
75582;SDS011;64161;46.312;44.310;2022-10-23T02:50:37;11.80;;;6.43;;
75582;SDS011;64161;46.312;44.310;2022-10-23T02:53:16;11.63;;;6.25;;
75582;SDS011;64161;46.312;44.310;2022-10-23T02:58:58;10.98;;;5.03;;
75582;SDS011;64161;46.312;44.310;2022-10-23T03:01:49;14.90;;;6.72;;
75582;SDS011;64161;46.312;44.310;2022-10-23T03:04:20;12.65;;;6.15;;
75582;SDS011;64161;46.312;44.310;2022-10-23T03:06:50;9.65;;;5.30;;
75582;SDS011;64161;46.312;44.310;2022-10-23T03:09:16;12.00;;;6.15;;
75582;SDS011;64161;46.312;44.310;2022-10-23T03:11:43;12.77;;;6.03;;
75582;SDS011;64161;46.312;44.310;2022-10-23T03:14:13;11.90;;;5.30;;
75582;SDS011;64161;46.312;44.310;2022-10-23T03:16:39;12.63;;;6.55;;
75582;SDS011;64161;46.312;44.310;2022-10-23T03:19:07;12.10;;;6.38;;
75582;SDS011;64161;46.312;44.310;2022-10-23T03:21:34;13.68;;;6.43;;
75582;SDS011;64161;46.312;44.310;2022-10-23T03:24:02;13.63;;;6.38;;
75582;SDS011;64161;46.312;44.310;2022-10-23T03:26:35;12.45;;;5.78;;
75582;SDS011;64161;46.312;44.310;2022-10-23T03:29:03;12.20;;;5.22;;
75582;SDS011;64161;46.312;44.310;2022-10-23T03:31:29;12.00;;;5.80;;
75582;SDS011;64161;46.312;44.310;2022-10-23T03:33:58;12.52;;;5.95;;
75582;SDS011;64161;46.312;44.310;2022-10-23T03:36:27;12.50;;;5.40;;
75582;SDS011;64161;46.312;44.310;2022-10-23T03:38:53;10.57;;;5.63;;
75582;SDS011;64161;46.312;44.310;2022-10-23T03:41:21;12.70;;;6.10;;
75582;SDS011;64161;46.312;44.310;2022-10-23T03:43:47;13.23;;;6.50;;
75582;SDS011;64161;46.312;44.310;2022-10-23T03:46:14;13.20;;;6.50;;
75582;SDS011;64161;46.312;44.310;2022-10-23T03:48:41;16.33;;;6.80;;
75582;SDS011;64161;46.312;44.310;2022-10-23T03:51:09;12.25;;;6.05;;
75582;SDS011;64161;46.312;44.310;2022-10-23T03:53:39;13.10;;;7.03;;
75582;SDS011;64161;46.312;44.310;2022-10-23T03:56:05;11.25;;;6.28;;
75582;SDS011;64161;46.312;44.310;2022-10-23T03:58:32;11.93;;;5.50;;
75582;SDS011;64161;46.312;44.310;2022-10-23T04:00:58;11.98;;;6.18;;
75582;SDS011;64161;46.312;44.310;2022-10-23T04:03:26;12.95;;;5.75;;
75582;SDS011;64161;46.312;44.310;2022-10-23T04:05:52;13.48;;;6.07;;
75582;SDS011;64161;46.312;44.310;2022-10-23T04:08:20;10.77;;;5.38;;
75582;SDS011;64161;46.312;44.310;2022-10-23T04:10:50;11.75;;;6.07;;
75582;SDS011;64161;46.312;44.310;2022-10-23T04:13:20;19.67;;;5.43;;
75582;SDS011;64161;46.312;44.310;2022-10-23T04:15:47;13.40;;;5.55;;
75582;SDS011;64161;46.312;44.310;2022-10-23T04:18:15;11.52;;;5.85;;
75582;SDS011;64161;46.312;44.310;2022-10-23T04:20:42;12.93;;;6.68;;
75582;SDS011;64161;46.312;44.310;2022-10-23T04:23:11;15.30;;;6.82;;
75582;SDS011;64161;46.312;44.310;2022-10-23T04:25:40;13.65;;;6.43;;
75582;SDS011;64161;46.312;44.310;2022-10-23T04:28:07;20.80;;;8.45;;
75582;SDS011;64161;46.312;44.310;2022-10-23T04:30:37;13.45;;;6.75;;
75582;SDS011;64161;46.312;44.310;2022-10-23T04:33:05;13.68;;;6.15;;
75582;SDS011;64161;46.312;44.310;2022-10-23T04:35:32;11.38;;;6.15;;
75582;SDS011;64161;46.312;44.310;2022-10-23T04:37:58;15.25;;;6.13;;
75582;SDS011;64161;46.312;44.310;2022-10-23T04:40:25;11.52;;;5.97;;
75582;SDS011;64161;46.312;44.310;2022-10-23T04:42:53;16.35;;;7.28;;
75582;SDS011;64161;46.312;44.310;2022-10-23T04:45:20;12.82;;;5.85;;
75582;SDS011;64161;46.312;44.310;2022-10-23T04:47:46;15.45;;;7.15;;
75582;SDS011;64161;46.312;44.310;2022-10-23T04:50:12;14.80;;;6.32;;
75582;SDS011;64161;46.312;44.310;2022-10-23T04:52:58;11.98;;;5.72;;
75582;SDS011;64161;46.312;44.310;2022-10-23T04:55:47;11.65;;;6.07;;
75582;SDS011;64161;46.312;44.310;2022-10-23T04:58:33;12.98;;;7.18;;
75582;SDS011;64161;46.312;44.310;2022-10-23T05:01:00;27.67;;;7.22;;
75582;SDS011;64161;46.312;44.310;2022-10-23T05:03:27;11.52;;;6.53;;
75582;SDS011;64161;46.312;44.310;2022-10-23T05:05:54;12.10;;;5.90;;
75582;SDS011;64161;46.312;44.310;2022-10-23T05:08:48;10.50;;;6.07;;
75582;SDS011;64161;46.312;44.310;2022-10-23T05:11:34;15.02;;;6.93;;
75582;SDS011;64161;46.312;44.310;2022-10-23T05:14:05;13.07;;;6.40;;
75582;SDS011;64161;46.312;44.310;2022-10-23T05:19:22;13.57;;;7.57;;
75582;SDS011;64161;46.312;44.310;2022-10-23T05:21:53;11.10;;;6.30;;
75582;SDS011;64161;46.312;44.310;2022-10-23T05:24:24;13.07;;;6.82;;
75582;SDS011;64161;46.312;44.310;2022-10-23T05:26:57;12.10;;;6.70;;
75582;SDS011;64161;46.312;44.310;2022-10-23T05:29:24;10.45;;;5.78;;
75582;SDS011;64161;46.312;44.310;2022-10-23T05:31:53;12.38;;;6.47;;
75582;SDS011;64161;46.312;44.310;2022-10-23T05:34:28;13.70;;;6.90;;
75582;SDS011;64161;46.312;44.310;2022-10-23T05:37:00;10.52;;;5.43;;
75582;SDS011;64161;46.312;44.310;2022-10-23T05:39:35;12.88;;;7.00;;
75582;SDS011;64161;46.312;44.310;2022-10-23T05:42:07;10.85;;;6.28;;
75582;SDS011;64161;46.312;44.310;2022-10-23T05:44:33;11.15;;;6.43;;
75582;SDS011;64161;46.312;44.310;2022-10-23T05:47:18;13.45;;;7.40;;
75582;SDS011;64161;46.312;44.310;2022-10-23T05:50:14;12.88;;;6.43;;
75582;SDS011;64161;46.312;44.310;2022-10-23T05:53:03;10.85;;;6.30;;
75582;SDS011;64161;46.312;44.310;2022-10-23T05:55:47;9.55;;;5.50;;
75582;SDS011;64161;46.312;44.310;2022-10-23T05:58:32;13.43;;;6.30;;
75582;SDS011;64161;46.312;44.310;2022-10-23T06:01:17;13.55;;;6.13;;
75582;SDS011;64161;46.312;44.310;2022-10-23T06:04:12;8.98;;;5.65;;
75582;SDS011;64161;46.312;44.310;2022-10-23T06:06:58;8.63;;;5.35;;
75582;SDS011;64161;46.312;44.310;2022-10-23T06:09:25;10.98;;;5.22;;
75582;SDS011;64161;46.312;44.310;2022-10-23T06:11:55;8.93;;;5.72;;
75582;SDS011;64161;46.312;44.310;2022-10-23T06:14:22;9.77;;;6.03;;
75582;SDS011;64161;46.312;44.310;2022-10-23T06:16:50;9.98;;;4.72;;
75582;SDS011;64161;46.312;44.310;2022-10-23T06:19:17;11.70;;;6.50;;
75582;SDS011;64161;46.312;44.310;2022-10-23T06:21:45;8.75;;;4.97;;
75582;SDS011;64161;46.312;44.310;2022-10-23T06:24:13;8.88;;;4.90;;
75582;SDS011;64161;46.312;44.310;2022-10-23T06:26:47;7.90;;;4.50;;
75582;SDS011;64161;46.312;44.310;2022-10-23T06:29:19;11.05;;;7.00;;
75582;SDS011;64161;46.312;44.310;2022-10-23T06:31:46;11.30;;;6.20;;
75582;SDS011;64161;46.312;44.310;2022-10-23T06:34:12;12.07;;;6.50;;
75582;SDS011;64161;46.312;44.310;2022-10-23T06:36:40;11.15;;;5.88;;
75582;SDS011;64161;46.312;44.310;2022-10-23T06:39:26;10.13;;;5.47;;
75582;SDS011;64161;46.312;44.310;2022-10-23T06:42:08;11.57;;;5.90;;
75582;SDS011;64161;46.312;44.310;2022-10-23T06:44:53;8.38;;;5.60;;
75582;SDS011;64161;46.312;44.310;2022-10-23T06:47:38;10.98;;;6.30;;
75582;SDS011;64161;46.312;44.310;2022-10-23T06:50:23;13.07;;;7.15;;
75582;SDS011;64161;46.312;44.310;2022-10-23T06:52:52;11.68;;;5.65;;
75582;SDS011;64161;46.312;44.310;2022-10-23T06:55:20;10.90;;;5.72;;
75582;SDS011;64161;46.312;44.310;2022-10-23T06:57:47;8.02;;;4.22;;
75582;SDS011;64161;46.312;44.310;2022-10-23T07:00:14;12.70;;;6.50;;
75582;SDS011;64161;46.312;44.310;2022-10-23T07:05:18;12.18;;;6.47;;
75582;SDS011;64161;46.312;44.310;2022-10-23T07:07:45;10.40;;;5.50;;
75582;SDS011;64161;46.312;44.310;2022-10-23T07:10:17;7.13;;;3.53;;
75582;SDS011;64161;46.312;44.310;2022-10-23T07:12:46;6.40;;;3.53;;
75582;SDS011;64161;46.312;44.310;2022-10-23T07:15:36;6.68;;;4.30;;
75582;SDS011;64161;46.312;44.310;2022-10-23T07:18:05;9.82;;;3.90;;
75582;SDS011;64161;46.312;44.310;2022-10-23T07:20:57;5.57;;;3.22;;
75582;SDS011;64161;46.312;44.310;2022-10-23T07:23:24;5.22;;;2.85;;
75582;SDS011;64161;46.312;44.310;2022-10-23T07:25:50;7.28;;;4.25;;
75582;SDS011;64161;46.312;44.310;2022-10-23T07:28:21;7.90;;;3.10;;
75582;SDS011;64161;46.312;44.310;2022-10-23T07:30:58;9.15;;;3.58;;
75582;SDS011;64161;46.312;44.310;2022-10-23T07:33:37;6.22;;;3.08;;
75582;SDS011;64161;46.312;44.310;2022-10-23T07:36:13;3.90;;;2.45;;
75582;SDS011;64161;46.312;44.310;2022-10-23T07:38:40;5.80;;;3.05;;
75582;SDS011;64161;46.312;44.310;2022-10-23T07:41:07;5.88;;;3.70;;
75582;SDS011;64161;46.312;44.310;2022-10-23T07:43:35;6.00;;;2.92;;
75582;SDS011;64161;46.312;44.310;2022-10-23T07:46:02;5.63;;;3.00;;
75582;SDS011;64161;46.312;44.310;2022-10-23T07:48:36;6.18;;;3.55;;
75582;SDS011;64161;46.312;44.310;2022-10-23T07:51:05;5.78;;;2.97;;
75582;SDS011;64161;46.312;44.310;2022-10-23T07:53:41;7.60;;;3.40;;
75582;SDS011;64161;46.312;44.310;2022-10-23T07:56:19;5.97;;;3.25;;
75582;SDS011;64161;46.312;44.310;2022-10-23T07:59:08;7.13;;;3.65;;
75582;SDS011;64161;46.312;44.310;2022-10-23T08:01:38;8.00;;;4.13;;
75582;SDS011;64161;46.312;44.310;2022-10-23T08:04:04;7.07;;;3.22;;
75582;SDS011;64161;46.312;44.310;2022-10-23T08:06:34;5.82;;;3.40;;
75582;SDS011;64161;46.312;44.310;2022-10-23T08:09:00;7.22;;;3.55;;
75582;SDS011;64161;46.312;44.310;2022-10-23T08:11:29;5.95;;;3.88;;
75582;SDS011;64161;46.312;44.310;2022-10-23T08:14:02;7.82;;;3.58;;
75582;SDS011;64161;46.312;44.310;2022-10-23T08:16:32;5.82;;;2.95;;
75582;SDS011;64161;46.312;44.310;2022-10-23T08:19:03;5.90;;;3.22;;
75582;SDS011;64161;46.312;44.310;2022-10-23T08:21:32;4.53;;;2.90;;
75582;SDS011;64161;46.312;44.310;2022-10-23T08:23:59;4.65;;;2.75;;
75582;SDS011;64161;46.312;44.310;2022-10-23T08:26:27;4.82;;;2.88;;
75582;SDS011;64161;46.312;44.310;2022-10-23T08:28:54;4.38;;;2.88;;
75582;SDS011;64161;46.312;44.310;2022-10-23T08:34:13;5.32;;;2.50;;
75582;SDS011;64161;46.312;44.310;2022-10-23T08:36:43;5.40;;;3.33;;
75582;SDS011;64161;46.312;44.310;2022-10-23T08:39:09;5.43;;;2.20;;
75582;SDS011;64161;46.312;44.310;2022-10-23T08:41:46;10.98;;;3.65;;
75582;SDS011;64161;46.312;44.310;2022-10-23T08:46:46;6.57;;;2.97;;
75582;SDS011;64161;46.312;44.310;2022-10-23T08:52:31;5.60;;;3.17;;
75582;SDS011;64161;46.312;44.310;2022-10-23T08:55:20;5.10;;;2.97;;
75582;SDS011;64161;46.312;44.310;2022-10-23T08:57:56;8.45;;;3.15;;
75582;SDS011;64161;46.312;44.310;2022-10-23T09:00:35;8.07;;;2.35;;
75582;SDS011;64161;46.312;44.310;2022-10-23T09:03:03;6.78;;;2.88;;
75582;SDS011;64161;46.312;44.310;2022-10-23T09:19:10;6.53;;;2.90;;
75582;SDS011;64161;46.312;44.310;2022-10-23T09:21:40;7.07;;;3.35;;
75582;SDS011;64161;46.312;44.310;2022-10-23T09:24:11;6.50;;;3.55;;
75582;SDS011;64161;46.312;44.310;2022-10-23T09:26:43;6.30;;;3.78;;
75582;SDS011;64161;46.312;44.310;2022-10-23T09:29:23;5.57;;;3.53;;
75582;SDS011;64161;46.312;44.310;2022-10-23T09:31:53;7.55;;;3.88;;
75582;SDS011;64161;46.312;44.310;2022-10-23T09:34:22;4.65;;;2.35;;
75582;SDS011;64161;46.312;44.310;2022-10-23T09:36:55;5.57;;;3.30;;
75582;SDS011;64161;46.312;44.310;2022-10-23T09:39:47;5.47;;;2.28;;
75582;SDS011;64161;46.312;44.310;2022-10-23T09:42:20;5.32;;;2.65;;
75582;SDS011;64161;46.312;44.310;2022-10-23T09:44:49;5.72;;;3.10;;
75582;SDS011;64161;46.312;44.310;2022-10-23T09:47:19;3.50;;;1.95;;
75582;SDS011;64161;46.312;44.310;2022-10-23T09:49:49;4.63;;;2.40;;
75582;SDS011;64161;46.312;44.310;2022-10-23T09:52:22;6.70;;;3.00;;
75582;SDS011;64161;46.312;44.310;2022-10-23T09:55:16;5.90;;;2.72;;
75582;SDS011;64161;46.312;44.310;2022-10-23T09:57:46;6.28;;;3.42;;
75582;SDS011;64161;46.312;44.310;2022-10-23T10:02:42;4.47;;;2.85;;
75582;SDS011;64161;46.312;44.310;2022-10-23T10:05:40;10.20;;;3.05;;
75582;SDS011;64161;46.312;44.310;2022-10-23T10:16:29;5.20;;;2.20;;
75582;SDS011;64161;46.312;44.310;2022-10-23T10:24:24;5.78;;;2.85;;
75582;SDS011;64161;46.312;44.310;2022-10-23T10:41:13;5.43;;;2.58;;
75582;SDS011;64161;46.312;44.310;2022-10-23T10:43:51;24.83;;;2.92;;
75582;SDS011;64161;46.312;44.310;2022-10-23T10:46:24;4.82;;;2.58;;
75582;SDS011;64161;46.312;44.310;2022-10-23T10:49:16;4.93;;;2.20;;
75582;SDS011;64161;46.312;44.310;2022-10-23T11:00:43;4.05;;;2.13;;
75582;SDS011;64161;46.312;44.310;2022-10-23T11:05:53;4.18;;;2.28;;
75582;SDS011;64161;46.312;44.310;2022-10-23T11:08:30;5.50;;;2.22;;
75582;SDS011;64161;46.312;44.310;2022-10-23T11:11:09;3.88;;;2.42;;
75582;SDS011;64161;46.312;44.310;2022-10-23T11:13:50;5.55;;;2.65;;
75582;SDS011;64161;46.312;44.310;2022-10-23T11:16:20;4.07;;;2.10;;
75582;SDS011;64161;46.312;44.310;2022-10-23T11:37:59;3.22;;;1.67;;
75582;SDS011;64161;46.312;44.310;2022-10-23T11:40:49;4.78;;;2.00;;
75582;SDS011;64161;46.312;44.310;2022-10-23T11:43:25;4.25;;;1.95;;
75582;SDS011;64161;46.312;44.310;2022-10-23T11:46:13;5.10;;;2.08;;
75582;SDS011;64161;46.312;44.310;2022-10-23T11:48:55;4.65;;;2.13;;
75582;SDS011;64161;46.312;44.310;2022-10-23T11:56:37;8.70;;;2.30;;
75582;SDS011;64161;46.312;44.310;2022-10-23T11:59:26;4.30;;;2.10;;
75582;SDS011;64161;46.312;44.310;2022-10-23T12:01:57;4.85;;;2.30;;
75582;SDS011;64161;46.312;44.310;2022-10-23T12:04:37;4.88;;;2.10;;
75582;SDS011;64161;46.312;44.310;2022-10-23T12:07:21;4.03;;;2.10;;
75582;SDS011;64161;46.312;44.310;2022-10-23T12:09:54;4.43;;;1.92;;
75582;SDS011;64161;46.312;44.310;2022-10-23T12:12:27;3.05;;;1.65;;
75582;SDS011;64161;46.312;44.310;2022-10-23T12:17:45;3.63;;;1.63;;
75582;SDS011;64161;46.312;44.310;2022-10-23T12:20:23;4.32;;;2.20;;
75582;SDS011;64161;46.312;44.310;2022-10-23T12:23:07;3.28;;;1.65;;
75582;SDS011;64161;46.312;44.310;2022-10-23T12:25:54;4.47;;;2.45;;
75582;SDS011;64161;46.312;44.310;2022-10-23T12:34:17;3.90;;;1.75;;
75582;SDS011;64161;46.312;44.310;2022-10-23T12:39:32;4.30;;;2.03;;
75582;SDS011;64161;46.312;44.310;2022-10-23T12:42:26;3.38;;;1.85;;
75582;SDS011;64161;46.312;44.310;2022-10-23T12:45:36;3.22;;;1.95;;
75582;SDS011;64161;46.312;44.310;2022-10-23T12:50:16;10.10;;;2.50;;
75582;SDS011;64161;46.312;44.310;2022-10-23T12:52:56;6.78;;;3.05;;
75582;SDS011;64161;46.312;44.310;2022-10-23T12:55:30;4.57;;;2.05;;
75582;SDS011;64161;46.312;44.310;2022-10-23T12:58:20;7.63;;;2.50;;
75582;SDS011;64161;46.312;44.310;2022-10-23T13:00:53;3.72;;;1.63;;
75582;SDS011;64161;46.312;44.310;2022-10-23T13:03:21;3.20;;;2.00;;
75582;SDS011;64161;46.312;44.310;2022-10-23T13:05:50;4.22;;;2.10;;
75582;SDS011;64161;46.312;44.310;2022-10-23T13:08:19;3.70;;;2.30;;
75582;SDS011;64161;46.312;44.310;2022-10-23T13:11:08;6.32;;;2.28;;
75582;SDS011;64161;46.312;44.310;2022-10-23T13:13:39;4.65;;;2.13;;
75582;SDS011;64161;46.312;44.310;2022-10-23T13:16:15;5.03;;;2.30;;
75582;SDS011;64161;46.312;44.310;2022-10-23T13:18:43;4.43;;;2.17;;
75582;SDS011;64161;46.312;44.310;2022-10-23T13:21:13;4.18;;;1.88;;
75582;SDS011;64161;46.312;44.310;2022-10-23T13:23:51;4.10;;;2.17;;
75582;SDS011;64161;46.312;44.310;2022-10-23T13:28:57;3.22;;;1.60;;
75582;SDS011;64161;46.312;44.310;2022-10-23T13:31:26;3.55;;;1.77;;
75582;SDS011;64161;46.312;44.310;2022-10-23T13:36:29;5.82;;;2.50;;
75582;SDS011;64161;46.312;44.310;2022-10-23T13:39:03;4.70;;;2.15;;
75582;SDS011;64161;46.312;44.310;2022-10-23T13:41:42;3.80;;;1.40;;
75582;SDS011;64161;46.312;44.310;2022-10-23T13:44:11;4.35;;;2.28;;
75582;SDS011;64161;46.312;44.310;2022-10-23T13:46:39;3.92;;;1.80;;
75582;SDS011;64161;46.312;44.310;2022-10-23T13:49:06;4.22;;;1.85;;
75582;SDS011;64161;46.312;44.310;2022-10-23T13:51:34;4.10;;;1.55;;
75582;SDS011;64161;46.312;44.310;2022-10-23T13:54:17;5.68;;;1.83;;
75582;SDS011;64161;46.312;44.310;2022-10-23T13:56:45;3.03;;;1.52;;
75582;SDS011;64161;46.312;44.310;2022-10-23T13:59:13;14.25;;;2.63;;
75582;SDS011;64161;46.312;44.310;2022-10-23T14:01:40;3.78;;;2.10;;
75582;SDS011;64161;46.312;44.310;2022-10-23T14:04:08;5.45;;;2.30;;
75582;SDS011;64161;46.312;44.310;2022-10-23T14:06:36;4.43;;;2.05;;
75582;SDS011;64161;46.312;44.310;2022-10-23T14:09:04;4.75;;;2.63;;
75582;SDS011;64161;46.312;44.310;2022-10-23T14:11:32;4.70;;;2.33;;
75582;SDS011;64161;46.312;44.310;2022-10-23T14:13:59;6.65;;;2.38;;
75582;SDS011;64161;46.312;44.310;2022-10-23T14:16:25;5.57;;;2.65;;
75582;SDS011;64161;46.312;44.310;2022-10-23T14:18:52;3.05;;;1.85;;
75582;SDS011;64161;46.312;44.310;2022-10-23T14:21:19;5.43;;;2.63;;
75582;SDS011;64161;46.312;44.310;2022-10-23T14:23:47;11.80;;;6.28;;
75582;SDS011;64161;46.312;44.310;2022-10-23T14:26:15;4.03;;;2.30;;
75582;SDS011;64161;46.312;44.310;2022-10-23T14:28:44;5.40;;;2.78;;
75582;SDS011;64161;46.312;44.310;2022-10-23T14:31:12;8.02;;;3.20;;
75582;SDS011;64161;46.312;44.310;2022-10-23T14:33:42;6.80;;;3.78;;
75582;SDS011;64161;46.312;44.310;2022-10-23T14:36:10;8.75;;;3.10;;
75582;SDS011;64161;46.312;44.310;2022-10-23T14:38:37;10.00;;;2.38;;
75582;SDS011;64161;46.312;44.310;2022-10-23T14:41:11;5.25;;;2.75;;
75582;SDS011;64161;46.312;44.310;2022-10-23T14:43:38;8.82;;;3.25;;
75582;SDS011;64161;46.312;44.310;2022-10-23T14:46:08;5.70;;;2.95;;
75582;SDS011;64161;46.312;44.310;2022-10-23T14:48:39;6.40;;;3.25;;
75582;SDS011;64161;46.312;44.310;2022-10-23T14:51:17;9.10;;;3.50;;
75582;SDS011;64161;46.312;44.310;2022-10-23T14:53:46;5.93;;;3.03;;
75582;SDS011;64161;46.312;44.310;2022-10-23T14:56:13;10.00;;;3.58;;
75582;SDS011;64161;46.312;44.310;2022-10-23T14:58:40;6.93;;;2.72;;
75582;SDS011;64161;46.312;44.310;2022-10-23T15:01:07;7.28;;;3.70;;
75582;SDS011;64161;46.312;44.310;2022-10-23T15:03:35;13.00;;;4.20;;
75582;SDS011;64161;46.312;44.310;2022-10-23T15:06:01;6.43;;;3.67;;
75582;SDS011;64161;46.312;44.310;2022-10-23T15:08:28;8.77;;;3.85;;
75582;SDS011;64161;46.312;44.310;2022-10-23T15:10:58;5.70;;;3.45;;
75582;SDS011;64161;46.312;44.310;2022-10-23T15:13:26;5.30;;;3.15;;
75582;SDS011;64161;46.312;44.310;2022-10-23T15:16:05;6.68;;;3.17;;
75582;SDS011;64161;46.312;44.310;2022-10-23T15:18:34;9.70;;;3.55;;
75582;SDS011;64161;46.312;44.310;2022-10-23T15:21:02;10.60;;;4.15;;
75582;SDS011;64161;46.312;44.310;2022-10-23T15:23:33;8.30;;;4.45;;
75582;SDS011;64161;46.312;44.310;2022-10-23T15:26:01;9.57;;;4.25;;
75582;SDS011;64161;46.312;44.310;2022-10-23T15:28:30;8.00;;;3.85;;
75582;SDS011;64161;46.312;44.310;2022-10-23T15:30:57;6.68;;;3.65;;
75582;SDS011;64161;46.312;44.310;2022-10-23T15:33:25;8.90;;;4.07;;
75582;SDS011;64161;46.312;44.310;2022-10-23T15:35:52;8.65;;;4.32;;
75582;SDS011;64161;46.312;44.310;2022-10-23T15:38:19;8.63;;;4.25;;
75582;SDS011;64161;46.312;44.310;2022-10-23T15:40:47;9.23;;;4.18;;
75582;SDS011;64161;46.312;44.310;2022-10-23T15:43:14;11.05;;;4.80;;
75582;SDS011;64161;46.312;44.310;2022-10-23T15:45:41;12.10;;;4.97;;
75582;SDS011;64161;46.312;44.310;2022-10-23T15:48:08;10.10;;;4.78;;
75582;SDS011;64161;46.312;44.310;2022-10-23T15:50:35;6.75;;;3.85;;
75582;SDS011;64161;46.312;44.310;2022-10-23T15:53:02;9.68;;;4.63;;
75582;SDS011;64161;46.312;44.310;2022-10-23T15:55:28;9.35;;;4.32;;
75582;SDS011;64161;46.312;44.310;2022-10-23T15:57:55;9.75;;;4.78;;
75582;SDS011;64161;46.312;44.310;2022-10-23T16:00:26;7.85;;;3.65;;
75582;SDS011;64161;46.312;44.310;2022-10-23T16:02:52;7.07;;;4.05;;
75582;SDS011;64161;46.312;44.310;2022-10-23T16:05:19;7.82;;;3.70;;
75582;SDS011;64161;46.312;44.310;2022-10-23T16:07:45;10.23;;;4.35;;
75582;SDS011;64161;46.312;44.310;2022-10-23T16:10:12;9.00;;;4.05;;
75582;SDS011;64161;46.312;44.310;2022-10-23T16:12:38;6.75;;;3.55;;
75582;SDS011;64161;46.312;44.310;2022-10-23T16:15:05;20.17;;;4.18;;
75582;SDS011;64161;46.312;44.310;2022-10-23T16:17:32;8.55;;;3.33;;
75582;SDS011;64161;46.312;44.310;2022-10-23T16:19:59;11.48;;;3.78;;
75582;SDS011;64161;46.312;44.310;2022-10-23T16:22:25;6.90;;;3.22;;
75582;SDS011;64161;46.312;44.310;2022-10-23T16:24:52;9.43;;;3.25;;
75582;SDS011;64161;46.312;44.310;2022-10-23T16:27:19;7.13;;;3.60;;
75582;SDS011;64161;46.312;44.310;2022-10-23T16:29:45;6.40;;;2.83;;
75582;SDS011;64161;46.312;44.310;2022-10-23T16:32:11;8.23;;;2.45;;
75582;SDS011;64161;46.312;44.310;2022-10-23T16:34:38;5.70;;;2.45;;
75582;SDS011;64161;46.312;44.310;2022-10-23T16:37:04;6.45;;;3.00;;
75582;SDS011;64161;46.312;44.310;2022-10-23T16:39:44;6.43;;;2.30;;
75582;SDS011;64161;46.312;44.310;2022-10-23T16:42:40;7.85;;;2.67;;
75582;SDS011;64161;46.312;44.310;2022-10-23T16:45:42;4.78;;;2.60;;
75582;SDS011;64161;46.312;44.310;2022-10-23T16:48:09;6.80;;;3.08;;
75582;SDS011;64161;46.312;44.310;2022-10-23T16:50:39;5.43;;;2.70;;
75582;SDS011;64161;46.312;44.310;2022-10-23T16:53:06;4.75;;;3.15;;
75582;SDS011;64161;46.312;44.310;2022-10-23T16:55:32;5.65;;;3.28;;
75582;SDS011;64161;46.312;44.310;2022-10-23T16:57:59;5.68;;;3.13;;
75582;SDS011;64161;46.312;44.310;2022-10-23T17:00:26;7.40;;;3.47;;
75582;SDS011;64161;46.312;44.310;2022-10-23T17:03:00;5.80;;;2.92;;
75582;SDS011;64161;46.312;44.310;2022-10-23T17:05:27;6.55;;;3.78;;
75582;SDS011;64161;46.312;44.310;2022-10-23T17:07:57;6.32;;;3.47;;
75582;SDS011;64161;46.312;44.310;2022-10-23T17:10:23;7.10;;;3.55;;
75582;SDS011;64161;46.312;44.310;2022-10-23T17:12:50;8.93;;;3.60;;